createdAt,value
2018-07-09T00:00:08.735Z,18.66
2018-07-09T00:01:08.708Z,18.66
2018-07-09T00:02:08.697Z,18.60
2018-07-09T00:03:08.685Z,18.58
2018-07-09T00:04:08.694Z,18.51
2018-07-09T00:05:08.654Z,18.55
2018-07-09T00:06:08.663Z,18.47
2018-07-09T00:07:08.635Z,18.44
2018-07-09T00:08:08.629Z,18.36
2018-07-09T00:09:08.609Z,18.36
2018-07-09T00:10:08.626Z,18.25
2018-07-09T00:11:08.603Z,18.26
2018-07-09T00:12:08.580Z,18.27
2018-07-09T00:13:08.556Z,18.18
2018-07-09T00:14:08.549Z,18.18
2018-07-09T00:15:08.534Z,18.20
2018-07-09T00:16:08.544Z,18.20
2018-07-09T00:17:08.511Z,18.17
2018-07-09T00:18:08.502Z,18.15
2018-07-09T00:19:08.486Z,18.14
2018-07-09T00:20:08.499Z,18.11
2018-07-09T00:21:08.463Z,18.08
2018-07-09T00:22:08.448Z,18.12
2018-07-09T00:23:08.440Z,18.03
2018-07-09T00:24:08.427Z,18.07
2018-07-09T00:25:08.414Z,18.10
2018-07-09T00:26:08.420Z,18.07
2018-07-09T00:27:08.392Z,18.05
2018-07-09T00:28:08.375Z,17.99
2018-07-09T00:29:08.364Z,17.99
2018-07-09T00:30:08.353Z,17.93
2018-07-09T00:31:08.373Z,17.99
2018-07-09T00:32:08.328Z,17.97
2018-07-09T00:33:08.314Z,17.97
2018-07-09T00:34:08.304Z,17.95
2018-07-09T00:35:08.294Z,17.97
2018-07-09T00:36:08.278Z,17.89
2018-07-09T00:37:08.282Z,17.86
2018-07-09T00:38:08.253Z,17.78
2018-07-09T00:39:08.240Z,17.77
2018-07-09T00:40:08.231Z,17.82
2018-07-09T00:41:08.225Z,17.81
2018-07-09T00:42:08.222Z,17.74
2018-07-09T00:43:08.200Z,17.66
2018-07-09T00:44:08.177Z,17.68
2018-07-09T00:45:08.162Z,17.55
2018-07-09T00:46:08.156Z,17.52
2018-07-09T00:47:08.139Z,17.46
2018-07-09T00:48:08.157Z,17.44
2018-07-09T00:49:08.116Z,17.43
2018-07-09T00:50:08.098Z,17.31
2018-07-09T00:51:08.093Z,17.30
2018-07-09T00:52:08.086Z,17.28
2018-07-09T00:53:08.071Z,17.25
2018-07-09T00:54:08.069Z,17.30
2018-07-09T00:55:08.036Z,17.28
2018-07-09T00:56:08.029Z,17.21
2018-07-09T00:57:08.017Z,17.30
2018-07-09T00:58:08.031Z,17.23
2018-07-09T00:59:07.999Z,17.21
2018-07-09T01:00:07.976Z,17.21
2018-07-09T01:01:07.961Z,17.26
2018-07-09T01:02:07.949Z,17.26
2018-07-09T01:03:07.938Z,17.28
2018-07-09T01:04:07.941Z,17.30
2018-07-09T01:05:07.912Z,17.25
2018-07-09T01:06:07.900Z,17.21
2018-07-09T01:07:07.883Z,17.21
2018-07-09T01:08:07.873Z,17.19
2018-07-09T01:09:07.874Z,17.19
2018-07-09T01:10:07.849Z,17.16
2018-07-09T01:11:07.864Z,17.06
2018-07-09T01:12:07.837Z,17.11
2018-07-09T01:13:07.813Z,17.07
2018-07-09T01:14:07.800Z,17.07
2018-07-09T01:15:07.804Z,17.07
2018-07-09T01:16:07.779Z,17.07
2018-07-09T01:17:07.761Z,17.12
2018-07-09T01:18:07.753Z,17.01
2018-07-09T01:19:07.749Z,16.96
2018-07-09T01:20:07.716Z,16.91
2018-07-09T01:21:07.708Z,16.94
2018-07-09T01:22:07.705Z,16.85
2018-07-09T01:23:07.678Z,16.88
2018-07-09T01:24:07.685Z,16.82
2018-07-09T01:25:07.654Z,16.82
2018-07-09T01:26:07.644Z,16.73
2018-07-09T01:27:07.628Z,16.88
2018-07-09T01:28:07.619Z,16.79
2018-07-09T01:29:07.631Z,16.78
2018-07-09T01:30:07.590Z,16.78
2018-07-09T01:31:07.581Z,16.70
2018-07-09T01:32:07.562Z,16.81
2018-07-09T01:33:07.555Z,16.79
2018-07-09T01:34:07.544Z,16.78
2018-07-09T01:35:07.540Z,16.78
2018-07-09T01:36:07.514Z,16.86
2018-07-09T01:37:07.503Z,16.81
2018-07-09T01:38:07.486Z,16.78
2018-07-09T01:39:07.482Z,16.75
2018-07-09T01:40:07.493Z,16.71
2018-07-09T01:41:07.448Z,16.81
2018-07-09T01:42:07.434Z,16.78
2018-07-09T01:43:07.420Z,16.78
2018-07-09T01:44:07.410Z,16.73
2018-07-09T01:45:07.391Z,16.73
2018-07-09T01:46:07.394Z,16.76
2018-07-09T01:47:07.370Z,16.70
2018-07-09T01:48:07.351Z,16.76
2018-07-09T01:49:07.352Z,16.73
2018-07-09T01:50:07.333Z,16.76
2018-07-09T01:51:07.333Z,16.78
2018-07-09T01:52:07.306Z,16.66
2018-07-09T01:53:07.293Z,16.70
2018-07-09T01:54:07.284Z,16.68
2018-07-09T01:55:07.270Z,16.56
2018-07-09T01:56:07.265Z,16.70
2018-07-09T01:57:07.238Z,16.68
2018-07-09T01:58:28.240Z,16.61
2018-07-09T01:59:07.208Z,16.73
2018-07-09T02:00:07.219Z,16.64
2018-07-09T02:01:07.201Z,16.52
2018-07-09T02:02:07.169Z,16.45
2018-07-09T02:03:07.163Z,16.45
2018-07-09T02:04:07.146Z,16.49
2018-07-09T02:05:07.153Z,16.49
2018-07-09T02:06:07.149Z,16.45
2018-07-09T02:07:07.109Z,16.46
2018-07-09T02:08:07.089Z,16.39
2018-07-09T02:09:07.081Z,16.39
2018-07-09T02:10:07.070Z,16.35
2018-07-09T02:11:07.054Z,16.41
2018-07-09T02:12:07.062Z,16.35
2018-07-09T02:13:07.030Z,16.31
2018-07-09T02:14:07.016Z,16.34
2018-07-09T02:15:07.004Z,16.34
2018-07-09T02:16:06.995Z,16.31
2018-07-09T02:17:07.004Z,16.28
2018-07-09T02:18:06.964Z,16.25
2018-07-09T02:19:06.950Z,16.15
2018-07-09T02:20:06.936Z,16.14
2018-07-09T02:21:06.927Z,16.09
2018-07-09T02:22:06.930Z,16.04
2018-07-09T02:23:06.917Z,16.07
2018-07-09T02:24:06.883Z,16.05
2018-07-09T02:25:06.869Z,16.01
2018-07-09T02:26:06.862Z,16.02
2018-07-09T02:27:06.847Z,16.00
2018-07-09T02:28:06.844Z,16.01
2018-07-09T02:29:06.820Z,15.94
2018-07-09T02:30:06.809Z,15.94
2018-07-09T02:31:07.765Z,15.94
2018-07-09T02:32:06.773Z,15.90
2018-07-09T02:33:06.789Z,16.01
2018-07-09T02:34:06.749Z,15.96
2018-07-09T02:35:06.748Z,16.07
2018-07-09T02:36:06.726Z,16.04
2018-07-09T02:37:06.714Z,15.96
2018-07-09T02:38:06.714Z,16.04
2018-07-09T02:39:06.701Z,16.02
2018-07-09T02:40:06.702Z,15.97
2018-07-09T02:41:06.664Z,15.78
2018-07-09T02:42:06.645Z,15.90
2018-07-09T02:43:06.630Z,15.75
2018-07-09T02:44:06.638Z,15.67
2018-07-09T02:45:06.614Z,15.72
2018-07-09T02:46:06.590Z,15.68
2018-07-09T02:47:06.581Z,15.69
2018-07-09T02:48:06.562Z,15.71
2018-07-09T02:49:06.599Z,15.75
2018-07-09T02:50:06.569Z,15.82
2018-07-09T02:51:06.531Z,15.74
2018-07-09T02:52:06.513Z,15.67
2018-07-09T02:53:06.493Z,15.75
2018-07-09T02:54:06.483Z,15.71
2018-07-09T02:55:06.471Z,15.72
2018-07-09T02:56:06.468Z,15.74
2018-07-09T02:57:06.458Z,15.78
2018-07-09T02:58:06.428Z,15.83
2018-07-09T02:59:06.416Z,15.75
2018-07-09T03:00:06.407Z,15.74
2018-07-09T03:01:06.422Z,15.69
2018-07-09T03:02:06.378Z,15.78
2018-07-09T03:03:06.364Z,15.74
2018-07-09T03:04:06.345Z,15.71
2018-07-09T03:05:06.356Z,15.68
2018-07-09T03:06:06.345Z,15.65
2018-07-09T03:07:06.307Z,15.64
2018-07-09T03:08:06.295Z,15.65
2018-07-09T03:09:06.281Z,15.57
2018-07-09T03:10:06.289Z,15.59
2018-07-09T03:11:06.268Z,15.60
2018-07-09T03:12:06.239Z,15.60
2018-07-09T03:13:06.233Z,15.62
2018-07-09T03:14:06.214Z,15.56
2018-07-09T03:15:06.212Z,15.64
2018-07-09T03:16:06.183Z,15.54
2018-07-09T03:17:06.191Z,15.57
2018-07-09T03:18:06.163Z,15.51
2018-07-09T03:19:06.168Z,15.53
2018-07-09T03:20:06.147Z,15.41
2018-07-09T03:21:06.131Z,15.41
2018-07-09T03:22:06.120Z,15.36
2018-07-09T03:23:06.099Z,15.27
2018-07-09T03:24:06.077Z,15.34
2018-07-09T03:25:06.064Z,15.19
2018-07-09T03:26:06.065Z,15.17
2018-07-09T03:27:06.031Z,15.27
2018-07-09T03:28:06.022Z,15.20
2018-07-09T03:29:06.008Z,15.16
2018-07-09T03:30:05.990Z,15.13
2018-07-09T03:31:05.997Z,15.16
2018-07-09T03:32:05.988Z,15.16
2018-07-09T03:33:05.954Z,15.14
2018-07-09T03:34:05.938Z,15.11
2018-07-09T03:35:05.925Z,15.07
2018-07-09T03:36:05.916Z,15.13
2018-07-09T03:37:05.913Z,15.02
2018-07-09T03:38:05.902Z,14.98
2018-07-09T03:39:05.872Z,15.01
2018-07-09T03:40:05.860Z,15.01
2018-07-09T03:41:05.842Z,15.01
2018-07-09T03:42:05.848Z,14.91
2018-07-09T03:43:05.809Z,14.95
2018-07-09T03:44:05.798Z,14.96
2018-07-09T03:45:05.800Z,14.99
2018-07-09T03:46:05.771Z,14.89
2018-07-09T03:47:05.758Z,14.96
2018-07-09T03:48:05.758Z,15.02
2018-07-09T03:49:05.742Z,14.99
2018-07-09T03:50:05.716Z,14.95
2018-07-09T03:51:05.703Z,14.98
2018-07-09T03:52:05.689Z,14.98
2018-07-09T03:53:05.673Z,14.89
2018-07-09T03:54:05.679Z,14.88
2018-07-09T03:55:05.649Z,14.91
2018-07-09T03:56:05.637Z,14.98
2018-07-09T03:57:05.618Z,14.99
2018-07-09T03:58:05.608Z,14.96
2018-07-09T03:59:05.619Z,15.02
2018-07-09T04:00:05.576Z,15.03
2018-07-09T04:01:05.558Z,15.09
2018-07-09T04:02:05.552Z,15.13
2018-07-09T04:03:05.539Z,15.10
2018-07-09T04:04:05.526Z,15.16
2018-07-09T04:05:05.523Z,15.20
2018-07-09T04:06:05.495Z,15.20
2018-07-09T04:07:05.478Z,15.17
2018-07-09T04:08:05.462Z,15.31
2018-07-09T04:09:05.474Z,15.38
2018-07-09T04:10:05.451Z,15.44
2018-07-09T04:11:05.416Z,15.49
2018-07-09T04:12:05.410Z,15.47
2018-07-09T04:13:05.398Z,15.56
2018-07-09T04:14:05.384Z,15.51
2018-07-09T04:15:05.382Z,15.65
2018-07-09T04:16:05.352Z,15.65
2018-07-09T04:17:05.332Z,15.71
2018-07-09T04:18:05.327Z,15.72
2018-07-09T04:19:05.307Z,15.68
2018-07-09T04:20:05.328Z,15.84
2018-07-09T04:21:05.311Z,15.82
2018-07-09T04:22:05.270Z,15.90
2018-07-09T04:23:05.253Z,15.86
2018-07-09T04:24:05.246Z,15.90
2018-07-09T04:25:05.226Z,15.82
2018-07-09T04:26:05.238Z,15.83
2018-07-09T04:27:05.201Z,15.80
2018-07-09T04:28:05.187Z,15.82
2018-07-09T04:29:05.175Z,15.84
2018-07-09T04:30:05.159Z,15.84
2018-07-09T04:31:05.159Z,15.87
2018-07-09T04:32:05.126Z,16.00
2018-07-09T04:33:05.122Z,15.92
2018-07-09T04:34:05.160Z,15.94
2018-07-09T04:35:05.102Z,16.04
2018-07-09T04:36:05.104Z,16.04
2018-07-09T04:37:05.060Z,16.05
2018-07-09T04:38:05.046Z,16.23
2018-07-09T04:39:05.031Z,16.27
2018-07-09T04:40:05.020Z,16.28
2018-07-09T04:41:05.012Z,16.38
2018-07-09T04:42:05.009Z,16.45
2018-07-09T04:43:04.984Z,16.64
2018-07-09T04:44:04.962Z,16.86
2018-07-09T04:45:04.946Z,17.04
2018-07-09T04:46:04.949Z,17.26
2018-07-09T04:47:04.953Z,17.41
2018-07-09T04:48:04.909Z,17.54
2018-07-09T04:49:04.901Z,17.72
2018-07-09T04:50:04.877Z,17.86
2018-07-09T04:51:04.869Z,17.95
2018-07-09T04:52:04.853Z,17.96
2018-07-09T04:53:04.870Z,18.02
2018-07-09T04:54:04.832Z,18.15
2018-07-09T04:55:04.816Z,18.25
2018-07-09T04:56:04.800Z,18.36
2018-07-09T04:57:04.789Z,18.41
2018-07-09T04:58:04.852Z,18.48
2018-07-09T04:59:04.772Z,18.54
2018-07-09T05:00:04.805Z,18.62
2018-07-09T05:01:04.759Z,18.62
2018-07-09T05:02:04.737Z,18.62
2018-07-09T05:03:04.725Z,18.54
2018-07-09T05:04:04.754Z,18.54
2018-07-09T05:05:04.703Z,18.54
2018-07-09T05:06:04.700Z,18.54
2018-07-09T05:07:04.669Z,18.57
2018-07-09T05:08:04.652Z,18.47
2018-07-09T05:09:04.643Z,18.33
2018-07-09T05:10:25.690Z,18.35
2018-07-09T05:11:04.613Z,18.25
2018-07-09T05:12:04.603Z,18.25
2018-07-09T05:13:04.617Z,18.18
2018-07-09T05:14:04.578Z,18.20
2018-07-09T05:15:04.565Z,18.27
2018-07-09T05:16:04.572Z,18.12
2018-07-09T05:17:04.543Z,18.12
2018-07-09T05:18:04.532Z,18.11
2018-07-09T05:19:04.516Z,18.14
2018-07-09T05:20:25.522Z,18.07
2018-07-09T05:21:04.495Z,18.10
2018-07-09T05:22:04.493Z,18.02
2018-07-09T05:23:04.468Z,18.02
2018-07-09T05:24:04.462Z,18.02
2018-07-09T05:25:04.476Z,18.03
2018-07-09T05:26:04.434Z,17.99
2018-07-09T05:27:04.421Z,18.10
2018-07-09T05:28:04.411Z,18.10
2018-07-09T05:29:04.396Z,18.07
2018-07-09T05:30:04.387Z,18.17
2018-07-09T05:31:04.387Z,18.11
2018-07-09T05:32:04.373Z,18.02
2018-07-09T05:33:04.349Z,18.00
2018-07-09T05:34:04.335Z,18.05
2018-07-09T05:35:04.327Z,18.07
2018-07-09T05:36:04.331Z,18.11
2018-07-09T05:37:04.317Z,18.14
2018-07-09T05:38:04.288Z,18.23
2018-07-09T05:39:04.278Z,18.20
2018-07-09T05:40:04.298Z,18.25
2018-07-09T05:41:04.258Z,18.30
2018-07-09T05:42:04.257Z,18.35
2018-07-09T05:43:04.226Z,18.51
2018-07-09T05:44:04.216Z,18.50
2018-07-09T05:45:04.198Z,18.63
2018-07-09T05:46:04.207Z,18.70
2018-07-09T05:47:04.238Z,18.75
2018-07-09T05:48:04.185Z,18.78
2018-07-09T05:49:04.153Z,18.75
2018-07-09T05:50:04.146Z,18.51
2018-07-09T05:51:04.134Z,18.65
2018-07-09T05:52:04.122Z,18.62
2018-07-09T05:53:04.117Z,18.44
2018-07-09T05:54:04.109Z,18.33
2018-07-09T05:55:04.081Z,18.39
2018-07-09T05:56:04.068Z,18.41
2018-07-09T05:57:04.058Z,18.41
2018-07-09T05:58:04.086Z,18.42
2018-07-09T05:59:04.038Z,18.48
2018-07-09T06:00:04.023Z,18.50
2018-07-09T06:01:04.010Z,18.60
2018-07-09T06:02:03.998Z,18.57
2018-07-09T06:03:03.987Z,18.47
2018-07-09T06:04:03.996Z,18.52
2018-07-09T06:05:03.957Z,18.57
2018-07-09T06:06:03.940Z,18.67
2018-07-09T06:07:03.937Z,18.63
2018-07-09T06:08:03.921Z,18.66
2018-07-09T06:09:03.927Z,18.72
2018-07-09T06:10:03.898Z,18.90
2018-07-09T06:11:03.921Z,18.94
2018-07-09T06:12:03.873Z,19.11
2018-07-09T06:13:03.862Z,19.32
2018-07-09T06:14:03.849Z,19.43
2018-07-09T06:15:03.849Z,19.43
2018-07-09T06:16:03.829Z,19.56
2018-07-09T06:17:03.809Z,19.61
2018-07-09T06:18:03.804Z,19.61
2018-07-09T06:19:03.785Z,19.68
2018-07-09T06:20:24.788Z,19.80
2018-07-09T06:21:03.761Z,19.78
2018-07-09T06:22:03.752Z,19.81
2018-07-09T06:23:03.743Z,19.84
2018-07-09T06:24:03.723Z,19.84
2018-07-09T06:25:03.741Z,19.71
2018-07-09T06:26:03.707Z,19.68
2018-07-09T06:27:03.685Z,19.74
2018-07-09T06:28:03.676Z,19.77
2018-07-09T06:29:03.666Z,19.84
2018-07-09T06:30:03.654Z,19.91
2018-07-09T06:31:03.658Z,19.91
2018-07-09T06:32:03.740Z,19.96
2018-07-09T06:33:03.617Z,19.98
2018-07-09T06:34:03.608Z,20.05
2018-07-09T06:35:03.607Z,20.05
2018-07-09T06:36:03.582Z,19.96
2018-07-09T06:37:03.586Z,19.91
2018-07-09T06:38:03.576Z,19.99
2018-07-09T06:39:03.546Z,20.03
2018-07-09T06:40:03.538Z,20.16
2018-07-09T06:41:03.522Z,20.17
2018-07-09T06:42:03.511Z,20.03
2018-07-09T06:43:03.516Z,20.17
2018-07-09T06:44:03.488Z,20.14
2018-07-09T06:45:03.479Z,20.21
2018-07-09T06:46:03.463Z,20.23
2018-07-09T06:47:03.464Z,20.28
2018-07-09T06:48:03.441Z,20.20
2018-07-09T06:49:03.429Z,20.13
2018-07-09T06:50:03.470Z,20.06
2018-07-09T06:51:03.402Z,20.06
2018-07-09T06:52:03.394Z,19.98
2018-07-09T06:53:03.388Z,20.05
2018-07-09T06:54:03.371Z,19.99
2018-07-09T06:55:03.390Z,19.98
2018-07-09T06:56:03.397Z,20.02
2018-07-09T06:57:03.334Z,20.14
2018-07-09T06:58:03.322Z,20.11
2018-07-09T06:59:03.313Z,20.24
2018-07-09T07:00:03.300Z,20.43
2018-07-09T07:01:03.304Z,20.47
2018-07-09T07:02:03.278Z,20.54
2018-07-09T07:03:03.263Z,20.62
2018-07-09T07:04:03.253Z,20.66
2018-07-09T07:05:03.252Z,20.82
2018-07-09T07:06:03.231Z,20.92
2018-07-09T07:07:03.234Z,20.98
2018-07-09T07:08:03.208Z,21.12
2018-07-09T07:09:03.214Z,21.17
2018-07-09T07:10:03.208Z,21.14
2018-07-09T07:11:03.169Z,21.17
2018-07-09T07:12:03.160Z,21.12
2018-07-09T07:13:03.166Z,20.95
2018-07-09T07:14:03.132Z,20.84
2018-07-09T07:15:03.125Z,20.80
2018-07-09T07:16:03.131Z,20.85
2018-07-09T07:17:03.099Z,20.94
2018-07-09T07:18:03.096Z,20.97
2018-07-09T07:19:03.080Z,20.99
2018-07-09T07:20:03.070Z,21.09
2018-07-09T07:21:03.108Z,21.06
2018-07-09T07:22:03.048Z,21.01
2018-07-09T07:23:03.029Z,21.06
2018-07-09T07:24:03.040Z,21.22
2018-07-09T07:25:03.019Z,21.21
2018-07-09T07:26:03.013Z,21.47
2018-07-09T07:27:02.992Z,21.52
2018-07-09T07:28:02.972Z,21.58
2018-07-09T07:29:02.965Z,21.71
2018-07-09T07:30:02.973Z,21.99
2018-07-09T07:31:02.962Z,22.12
2018-07-09T07:32:02.933Z,22.22
2018-07-09T07:33:02.966Z,22.07
2018-07-09T07:34:02.908Z,22.17
2018-07-09T07:35:02.894Z,22.12
2018-07-09T07:36:02.899Z,22.10
2018-07-09T07:37:02.891Z,22.12
2018-07-09T07:38:02.892Z,22.12
2018-07-09T07:39:02.855Z,22.12
2018-07-09T07:40:02.843Z,22.02
2018-07-09T07:41:02.835Z,22.02
2018-07-09T07:42:02.846Z,21.86
2018-07-09T07:43:02.820Z,21.86
2018-07-09T07:44:02.800Z,21.90
2018-07-09T07:45:02.792Z,21.68
2018-07-09T07:46:02.780Z,21.71
2018-07-09T07:47:02.770Z,21.72
2018-07-09T07:48:02.776Z,21.71
2018-07-09T07:49:02.747Z,21.72
2018-07-09T07:50:02.736Z,21.74
2018-07-09T07:51:02.728Z,21.77
2018-07-09T07:52:02.716Z,21.90
2018-07-09T07:53:02.716Z,21.98
2018-07-09T07:54:02.696Z,22.02
2018-07-09T07:55:02.679Z,22.03
2018-07-09T07:56:02.674Z,22.14
2018-07-09T07:57:02.662Z,22.17
2018-07-09T07:58:23.662Z,22.31
2018-07-09T07:59:02.646Z,22.40
2018-07-09T08:00:02.625Z,22.39
2018-07-09T08:01:02.620Z,22.37
2018-07-09T08:02:02.603Z,22.52
2018-07-09T08:03:02.637Z,22.40
2018-07-09T08:04:02.604Z,22.35
2018-07-09T08:05:02.578Z,22.39
2018-07-09T08:06:02.573Z,22.35
2018-07-09T08:07:02.559Z,22.36
2018-07-09T08:08:02.562Z,22.30
2018-07-09T08:09:02.550Z,22.33
2018-07-09T08:10:02.529Z,22.35
2018-07-09T08:11:10.911Z,22.54
2018-07-09T08:12:59.659Z,22.49
2018-07-09T08:13:27.173Z,22.55
2018-07-09T08:14:02.501Z,22.72
2018-07-09T08:15:02.473Z,22.72
2018-07-09T08:16:02.491Z,22.79
2018-07-09T08:17:02.451Z,22.83
2018-07-09T08:18:02.444Z,22.90
2018-07-09T08:19:02.432Z,22.88
2018-07-09T08:20:02.425Z,22.88
2018-07-09T08:21:02.420Z,23.01
2018-07-09T08:22:02.416Z,22.98
2018-07-09T08:23:02.393Z,22.95
2018-07-09T08:24:02.388Z,22.83
2018-07-09T08:25:02.459Z,22.77
2018-07-09T08:26:02.364Z,22.67
2018-07-09T08:27:02.371Z,22.68
2018-07-09T08:28:02.357Z,22.72
2018-07-09T08:29:02.331Z,22.83
2018-07-09T08:30:02.323Z,22.86
2018-07-09T08:31:02.314Z,22.82
2018-07-09T08:32:02.300Z,22.82
2018-07-09T08:33:02.307Z,22.88
2018-07-09T08:34:02.276Z,22.94
2018-07-09T08:35:02.270Z,23.05
2018-07-09T08:36:02.268Z,23.13
2018-07-09T08:37:02.267Z,23.23
2018-07-09T08:38:02.284Z,23.23
2018-07-09T08:39:02.231Z,23.23
2018-07-09T08:40:02.218Z,23.07
2018-07-09T08:41:02.220Z,23.22
2018-07-09T08:42:02.205Z,23.28
2018-07-09T08:43:02.224Z,23.22
2018-07-09T08:44:02.177Z,23.50
2018-07-09T08:45:02.174Z,23.51
2018-07-09T08:46:02.164Z,23.65
2018-07-09T08:47:02.149Z,23.58
2018-07-09T08:48:02.134Z,23.50
2018-07-09T08:49:02.146Z,23.47
2018-07-09T08:50:02.118Z,23.54
2018-07-09T08:51:02.108Z,23.73
2018-07-09T08:52:02.107Z,23.75
2018-07-09T08:53:02.083Z,23.90
2018-07-09T08:54:02.078Z,23.94
2018-07-09T08:55:02.083Z,23.94
2018-07-09T08:56:02.052Z,24.18
2018-07-09T08:57:02.050Z,24.39
2018-07-09T08:58:02.032Z,24.50
2018-07-09T08:59:02.041Z,24.62
2018-07-09T09:00:02.017Z,24.96
2018-07-09T09:01:02.006Z,25.15
2018-07-09T09:02:01.994Z,25.32
2018-07-09T09:03:01.982Z,25.50
2018-07-09T09:04:02.000Z,25.65
2018-07-09T09:05:01.980Z,25.87
2018-07-09T09:06:01.955Z,26.13
2018-07-09T09:07:01.940Z,26.43
2018-07-09T09:08:01.935Z,26.70
2018-07-09T09:09:01.927Z,27.25
2018-07-09T09:10:01.952Z,27.78
2018-07-09T09:11:01.917Z,28.06
2018-07-09T09:12:01.898Z,28.29
2018-07-09T09:13:01.888Z,28.37
2018-07-09T09:14:01.882Z,28.48
2018-07-09T09:15:01.866Z,28.70
2018-07-09T09:16:01.877Z,28.92
2018-07-09T09:17:22.865Z,29.11
2018-07-09T09:18:01.845Z,29.18
2018-07-09T09:19:01.823Z,29.42
2018-07-09T09:20:01.817Z,29.30
2018-07-09T09:21:01.810Z,29.11
2018-07-09T09:22:01.827Z,29.21
2018-07-09T09:23:01.794Z,28.46
2018-07-09T09:24:01.788Z,27.79
2018-07-09T09:25:01.776Z,27.36
2018-07-09T09:26:01.765Z,26.87
2018-07-09T09:27:01.767Z,26.55
2018-07-09T09:28:01.768Z,26.39
2018-07-09T09:29:01.757Z,26.26
2018-07-09T09:30:01.745Z,26.17
2018-07-09T09:31:01.725Z,26.01
2018-07-09T09:32:01.722Z,25.99
2018-07-09T09:33:01.732Z,26.01
2018-07-09T09:34:01.709Z,25.97
2018-07-09T09:35:01.706Z,25.94
2018-07-09T09:36:01.693Z,25.83
2018-07-09T09:37:01.687Z,25.79
2018-07-09T09:38:01.703Z,25.83
2018-07-09T09:39:01.676Z,25.79
2018-07-09T09:40:01.671Z,25.88
2018-07-09T09:41:01.659Z,26.01
2018-07-09T09:42:01.654Z,26.23
2018-07-09T09:43:01.676Z,26.44
2018-07-09T09:44:01.651Z,26.48
2018-07-09T09:45:01.630Z,26.88
2018-07-09T09:46:01.626Z,27.12
2018-07-09T09:47:01.618Z,27.18
2018-07-09T09:48:01.610Z,27.22
2018-07-09T09:49:01.633Z,27.32
2018-07-09T09:50:01.594Z,27.54
2018-07-09T09:51:01.593Z,27.69
2018-07-09T09:52:01.584Z,27.87
2018-07-09T09:53:01.583Z,28.02
2018-07-09T09:54:01.576Z,28.64
2018-07-09T09:55:01.639Z,28.86
2018-07-09T09:56:01.558Z,29.18
2018-07-09T09:57:01.558Z,29.30
2018-07-09T09:58:01.555Z,29.71
2018-07-09T09:59:01.545Z,30.02
2018-07-09T10:00:01.557Z,30.43
2018-07-09T10:01:01.562Z,30.10
2018-07-09T10:02:01.532Z,30.45
2018-07-09T10:03:01.536Z,30.75
2018-07-09T10:04:01.527Z,31.13
2018-07-09T10:05:01.539Z,31.31
2018-07-09T10:06:01.517Z,31.21
2018-07-09T10:07:01.517Z,31.41
2018-07-09T10:08:01.516Z,31.65
2018-07-09T10:09:01.514Z,31.43
2018-07-09T10:10:01.531Z,31.21
2018-07-09T10:11:01.506Z,31.39
2018-07-09T10:12:01.512Z,31.41
2018-07-09T10:13:01.506Z,31.58
2018-07-09T10:14:01.503Z,31.75
2018-07-09T10:15:01.518Z,31.78
2018-07-09T10:16:01.500Z,32.01
2018-07-09T10:17:01.502Z,32.19
2018-07-09T10:18:01.501Z,32.38
2018-07-09T10:19:01.498Z,32.30
2018-07-09T10:20:01.517Z,32.06
2018-07-09T10:21:01.497Z,31.92
2018-07-09T10:22:01.717Z,32.11
2018-07-09T10:23:01.569Z,32.37
2018-07-09T10:24:01.497Z,32.14
2018-07-09T10:25:01.499Z,31.69
2018-07-09T10:26:01.512Z,31.44
2018-07-09T10:27:01.498Z,31.41
2018-07-09T10:28:01.513Z,30.60
2018-07-09T10:29:01.504Z,30.67
2018-07-09T10:30:01.493Z,31.02
2018-07-09T10:31:01.500Z,31.47
2018-07-09T10:32:01.500Z,31.81
2018-07-09T10:33:01.518Z,31.84
2018-07-09T10:34:01.501Z,31.96
2018-07-09T10:35:01.499Z,32.23
2018-07-09T10:36:01.530Z,32.41
2018-07-09T10:37:01.501Z,32.40
2018-07-09T10:38:01.500Z,31.73
2018-07-09T10:39:01.497Z,31.61
2018-07-09T10:40:01.497Z,31.78
2018-07-09T10:41:01.504Z,31.62
2018-07-09T10:42:01.516Z,31.78
2018-07-09T10:43:01.500Z,31.72
2018-07-09T10:44:01.518Z,31.92
2018-07-09T10:45:01.505Z,31.34
2018-07-09T10:46:01.504Z,31.25
2018-07-09T10:47:01.522Z,31.25
2018-07-09T10:48:01.524Z,31.16
2018-07-09T10:49:01.510Z,31.13
2018-07-09T10:50:01.526Z,30.91
2018-07-09T10:51:01.515Z,31.07
2018-07-09T10:52:01.507Z,30.91
2018-07-09T10:53:01.509Z,30.76
2018-07-09T10:54:01.511Z,30.49
2018-07-09T10:55:01.540Z,30.34
2018-07-09T10:56:01.505Z,30.61
2018-07-09T10:57:01.507Z,30.97
2018-07-09T10:58:01.512Z,30.77
2018-07-09T10:59:01.514Z,30.60
2018-07-09T11:00:01.527Z,30.49
2018-07-09T11:01:01.512Z,30.08
2018-07-09T11:02:01.508Z,29.76
2018-07-09T11:03:01.508Z,29.33
2018-07-09T11:04:01.508Z,28.78
2018-07-09T11:05:01.528Z,28.21
2018-07-09T11:06:01.507Z,27.66
2018-07-09T11:07:01.505Z,27.17
2018-07-09T11:08:01.503Z,26.66
2018-07-09T11:09:01.503Z,26.32
2018-07-09T11:10:01.516Z,26.06
2018-07-09T11:11:01.497Z,25.54
2018-07-09T11:12:01.493Z,25.36
2018-07-09T11:13:01.486Z,25.05
2018-07-09T11:14:01.490Z,24.91
2018-07-09T11:15:01.524Z,24.98
2018-07-09T11:16:01.481Z,25.10
2018-07-09T11:17:01.473Z,25.17
2018-07-09T11:18:01.493Z,25.24
2018-07-09T11:19:01.465Z,25.30
2018-07-09T11:20:01.462Z,25.40
2018-07-09T11:21:01.458Z,25.52
2018-07-09T11:22:01.457Z,25.67
2018-07-09T11:23:01.446Z,25.76
2018-07-09T11:24:01.458Z,26.02
2018-07-09T11:25:01.446Z,26.05
2018-07-09T11:26:01.427Z,26.33
2018-07-09T11:27:01.416Z,26.60
2018-07-09T11:28:01.430Z,26.77
2018-07-09T11:29:01.413Z,27.25
2018-07-09T11:30:01.402Z,27.72
2018-07-09T11:31:01.398Z,27.65
2018-07-09T11:32:01.403Z,27.63
2018-07-09T11:33:01.382Z,27.28
2018-07-09T11:34:01.379Z,26.94
2018-07-09T11:35:01.396Z,26.69
2018-07-09T11:36:01.424Z,26.52
2018-07-09T11:37:01.363Z,26.33
2018-07-09T11:38:01.352Z,26.21
2018-07-09T11:39:01.352Z,26.20
2018-07-09T11:40:01.374Z,26.20
2018-07-09T11:41:01.358Z,27.03
2018-07-09T11:42:01.341Z,27.59
2018-07-09T11:43:01.328Z,28.06
2018-07-09T11:44:01.319Z,28.89
2018-07-09T11:45:01.339Z,28.83
2018-07-09T11:46:01.310Z,29.71
2018-07-09T11:47:01.313Z,30.23
2018-07-09T11:48:01.312Z,30.80
2018-07-09T11:49:01.295Z,31.28
2018-07-09T11:50:01.302Z,31.56
2018-07-09T11:51:01.307Z,31.53
2018-07-09T11:52:01.327Z,31.44
2018-07-09T11:53:01.290Z,32.01
2018-07-09T11:54:01.283Z,32.41
2018-07-09T11:55:01.280Z,32.45
2018-07-09T11:56:01.291Z,31.85
2018-07-09T11:57:01.278Z,31.02
2018-07-09T11:58:01.269Z,30.23
2018-07-09T11:59:01.311Z,29.37
2018-07-09T12:00:01.267Z,29.71
2018-07-09T12:01:01.284Z,29.74
2018-07-09T12:02:01.340Z,29.94
2018-07-09T12:03:01.288Z,30.17
2018-07-09T12:04:01.267Z,29.79
2018-07-09T12:05:01.258Z,29.58
2018-07-09T12:06:01.261Z,29.24
2018-07-09T12:07:01.258Z,29.08
2018-07-09T12:08:01.284Z,28.78
2018-07-09T12:09:01.647Z,28.67
2018-07-09T12:10:01.259Z,28.33
2018-07-09T12:11:01.250Z,28.03
2018-07-09T12:12:01.250Z,28.40
2018-07-09T12:13:01.242Z,29.09
2018-07-09T12:14:01.259Z,28.96
2018-07-09T12:15:01.243Z,28.62
2018-07-09T12:16:01.233Z,28.30
2018-07-09T12:17:01.230Z,27.96
2018-07-09T12:18:01.226Z,27.93
2018-07-09T12:19:01.241Z,27.90
2018-07-09T12:20:01.228Z,27.63
2018-07-09T12:21:01.218Z,27.39
2018-07-09T12:22:01.208Z,27.75
2018-07-09T12:23:01.205Z,28.21
2018-07-09T12:24:01.223Z,28.77
2018-07-09T12:25:01.209Z,29.45
2018-07-09T12:26:01.194Z,29.71
2018-07-09T12:27:01.188Z,29.87
2018-07-09T12:28:01.187Z,29.68
2018-07-09T12:29:01.225Z,29.48
2018-07-09T12:30:01.182Z,29.15
2018-07-09T12:31:01.177Z,28.96
2018-07-09T12:32:01.176Z,28.66
2018-07-09T12:33:01.170Z,28.41
2018-07-09T12:34:01.206Z,28.29
2018-07-09T12:35:01.178Z,28.44
2018-07-09T12:36:01.171Z,28.40
2018-07-09T12:37:01.155Z,28.49
2018-07-09T12:38:01.166Z,28.55
2018-07-09T12:39:01.164Z,28.56
2018-07-09T12:40:01.174Z,28.86
2018-07-09T12:41:01.138Z,28.88
2018-07-09T12:42:01.139Z,28.81
2018-07-09T12:43:01.131Z,29.02
2018-07-09T12:44:01.134Z,29.09
2018-07-09T12:45:01.122Z,28.95
2018-07-09T12:46:01.150Z,29.04
2018-07-09T12:47:01.118Z,28.98
2018-07-09T12:48:01.124Z,28.85
2018-07-09T12:49:01.121Z,28.62
2018-07-09T12:50:01.110Z,28.46
2018-07-09T12:51:01.134Z,28.25
2018-07-09T12:52:01.094Z,28.24